sensor_id;sensor_type;location;lat;lon;timestamp;P1;durP1;ratioP1;P2;durP2;ratioP2
3567;SDS011;1798;48.486;9.232;2023-08-30T00:01:26;9.30;;;5.50;;
3567;SDS011;1798;48.486;9.232;2023-08-30T00:03:53;8.97;;;6.20;;
3567;SDS011;1798;48.486;9.232;2023-08-30T00:06:19;11.03;;;5.83;;
3567;SDS011;1798;48.486;9.232;2023-08-30T00:08:46;9.53;;;6.33;;
3567;SDS011;1798;48.486;9.232;2023-08-30T00:11:12;8.20;;;5.67;;
3567;SDS011;1798;48.486;9.232;2023-08-30T00:13:39;12.20;;;7.40;;
3567;SDS011;1798;48.486;9.232;2023-08-30T00:16:08;12.40;;;6.70;;
3567;SDS011;1798;48.486;9.232;2023-08-30T00:18:35;18.23;;;7.07;;
3567;SDS011;1798;48.486;9.232;2023-08-30T00:21:02;17.60;;;6.80;;
3567;SDS011;1798;48.486;9.232;2023-08-30T00:23:29;10.03;;;6.10;;
3567;SDS011;1798;48.486;9.232;2023-08-30T00:25:55;9.30;;;6.20;;
3567;SDS011;1798;48.486;9.232;2023-08-30T00:28:22;8.60;;;6.20;;
3567;SDS011;1798;48.486;9.232;2023-08-30T00:30:52;8.07;;;5.67;;
3567;SDS011;1798;48.486;9.232;2023-08-30T00:33:21;10.40;;;5.90;;
3567;SDS011;1798;48.486;9.232;2023-08-30T00:35:54;15.50;;;5.70;;
3567;SDS011;1798;48.486;9.232;2023-08-30T00:38:21;11.80;;;6.40;;
3567;SDS011;1798;48.486;9.232;2023-08-30T00:40:48;10.77;;;6.43;;
3567;SDS011;1798;48.486;9.232;2023-08-30T00:43:15;9.60;;;7.50;;
3567;SDS011;1798;48.486;9.232;2023-08-30T00:45:41;11.93;;;8.20;;
3567;SDS011;1798;48.486;9.232;2023-08-30T00:48:08;14.90;;;7.80;;
3567;SDS011;1798;48.486;9.232;2023-08-30T00:50:36;15.60;;;9.63;;
3567;SDS011;1798;48.486;9.232;2023-08-30T00:53:03;13.07;;;9.30;;
3567;SDS011;1798;48.486;9.232;2023-08-30T00:55:30;21.77;;;9.20;;
3567;SDS011;1798;48.486;9.232;2023-08-30T00:57:58;14.37;;;8.27;;
3567;SDS011;1798;48.486;9.232;2023-08-30T01:00:25;13.80;;;8.00;;
3567;SDS011;1798;48.486;9.232;2023-08-30T01:02:52;16.83;;;7.97;;
3567;SDS011;1798;48.486;9.232;2023-08-30T01:05:19;13.20;;;8.17;;
3567;SDS011;1798;48.486;9.232;2023-08-30T01:07:47;20.53;;;7.90;;
3567;SDS011;1798;48.486;9.232;2023-08-30T01:10:14;8.70;;;6.93;;
3567;SDS011;1798;48.486;9.232;2023-08-30T01:12:42;13.53;;;6.83;;
3567;SDS011;1798;48.486;9.232;2023-08-30T01:15:13;8.70;;;6.47;;
3567;SDS011;1798;48.486;9.232;2023-08-30T01:17:42;10.33;;;6.40;;
3567;SDS011;1798;48.486;9.232;2023-08-30T01:20:09;10.13;;;7.10;;
3567;SDS011;1798;48.486;9.232;2023-08-30T01:22:43;10.17;;;7.30;;
3567;SDS011;1798;48.486;9.232;2023-08-30T01:25:20;11.53;;;6.27;;
3567;SDS011;1798;48.486;9.232;2023-08-30T01:27:55;11.43;;;7.30;;
3567;SDS011;1798;48.486;9.232;2023-08-30T01:30:22;12.63;;;7.40;;
3567;SDS011;1798;48.486;9.232;2023-08-30T01:32:51;39.80;;;8.50;;
3567;SDS011;1798;48.486;9.232;2023-08-30T01:35:18;12.20;;;6.50;;
3567;SDS011;1798;48.486;9.232;2023-08-30T01:37:47;11.30;;;6.23;;
3567;SDS011;1798;48.486;9.232;2023-08-30T01:40:14;10.43;;;6.60;;
3567;SDS011;1798;48.486;9.232;2023-08-30T01:42:42;10.50;;;6.30;;
3567;SDS011;1798;48.486;9.232;2023-08-30T01:45:11;11.00;;;6.70;;
3567;SDS011;1798;48.486;9.232;2023-08-30T01:47:39;14.17;;;6.60;;
3567;SDS011;1798;48.486;9.232;2023-08-30T01:50:06;9.73;;;6.17;;
3567;SDS011;1798;48.486;9.232;2023-08-30T01:52:33;12.77;;;5.47;;
3567;SDS011;1798;48.486;9.232;2023-08-30T01:55:00;12.43;;;7.23;;
3567;SDS011;1798;48.486;9.232;2023-08-30T01:57:28;9.17;;;6.87;;
3567;SDS011;1798;48.486;9.232;2023-08-30T01:59:54;26.43;;;6.90;;
3567;SDS011;1798;48.486;9.232;2023-08-30T02:02:22;20.70;;;6.20;;
3567;SDS011;1798;48.486;9.232;2023-08-30T02:04:49;13.10;;;6.20;;
3567;SDS011;1798;48.486;9.232;2023-08-30T02:07:16;13.23;;;6.10;;
3567;SDS011;1798;48.486;9.232;2023-08-30T02:09:48;11.97;;;6.00;;
3567;SDS011;1798;48.486;9.232;2023-08-30T02:12:16;10.53;;;6.30;;
3567;SDS011;1798;48.486;9.232;2023-08-30T02:14:44;9.53;;;6.40;;
3567;SDS011;1798;48.486;9.232;2023-08-30T02:17:13;7.30;;;5.70;;
3567;SDS011;1798;48.486;9.232;2023-08-30T02:19:42;9.23;;;6.23;;
3567;SDS011;1798;48.486;9.232;2023-08-30T02:22:09;11.83;;;6.87;;
3567;SDS011;1798;48.486;9.232;2023-08-30T02:24:36;20.53;;;7.27;;
3567;SDS011;1798;48.486;9.232;2023-08-30T02:27:02;14.97;;;6.37;;
3567;SDS011;1798;48.486;9.232;2023-08-30T02:29:29;17.70;;;6.67;;
3567;SDS011;1798;48.486;9.232;2023-08-30T02:31:56;10.97;;;6.97;;
3567;SDS011;1798;48.486;9.232;2023-08-30T02:34:23;9.80;;;6.47;;
3567;SDS011;1798;48.486;9.232;2023-08-30T02:36:51;17.03;;;6.60;;
3567;SDS011;1798;48.486;9.232;2023-08-30T02:39:17;15.87;;;7.20;;
3567;SDS011;1798;48.486;9.232;2023-08-30T02:41:44;22.27;;;6.63;;
3567;SDS011;1798;48.486;9.232;2023-08-30T02:44:11;11.47;;;6.80;;
3567;SDS011;1798;48.486;9.232;2023-08-30T02:46:38;7.20;;;4.33;;
3567;SDS011;1798;48.486;9.232;2023-08-30T02:49:05;11.03;;;6.80;;
3567;SDS011;1798;48.486;9.232;2023-08-30T02:51:31;8.80;;;5.90;;
3567;SDS011;1798;48.486;9.232;2023-08-30T02:54:00;12.00;;;6.03;;
3567;SDS011;1798;48.486;9.232;2023-08-30T02:56:26;12.50;;;6.43;;
3567;SDS011;1798;48.486;9.232;2023-08-30T02:58:53;36.77;;;8.23;;
3567;SDS011;1798;48.486;9.232;2023-08-30T03:01:20;9.17;;;6.10;;
3567;SDS011;1798;48.486;9.232;2023-08-30T03:03:46;23.97;;;6.93;;
3567;SDS011;1798;48.486;9.232;2023-08-30T03:06:13;12.87;;;6.00;;
3567;SDS011;1798;48.486;9.232;2023-08-30T03:08:40;12.23;;;6.30;;
3567;SDS011;1798;48.486;9.232;2023-08-30T03:11:08;9.03;;;5.43;;
3567;SDS011;1798;48.486;9.232;2023-08-30T03:13:36;10.80;;;6.17;;
3567;SDS011;1798;48.486;9.232;2023-08-30T03:16:09;8.10;;;5.20;;
3567;SDS011;1798;48.486;9.232;2023-08-30T03:18:36;17.67;;;6.00;;
3567;SDS011;1798;48.486;9.232;2023-08-30T03:21:03;14.50;;;5.97;;
3567;SDS011;1798;48.486;9.232;2023-08-30T03:23:30;7.93;;;5.30;;
3567;SDS011;1798;48.486;9.232;2023-08-30T03:25:57;9.07;;;6.00;;
3567;SDS011;1798;48.486;9.232;2023-08-30T03:28:25;26.93;;;5.90;;
3567;SDS011;1798;48.486;9.232;2023-08-30T03:30:52;8.30;;;5.50;;
3567;SDS011;1798;48.486;9.232;2023-08-30T03:33:19;19.90;;;5.67;;
3567;SDS011;1798;48.486;9.232;2023-08-30T03:35:46;9.93;;;5.37;;
3567;SDS011;1798;48.486;9.232;2023-08-30T03:38:12;13.30;;;5.97;;
3567;SDS011;1798;48.486;9.232;2023-08-30T03:40:39;37.50;;;6.40;;
3567;SDS011;1798;48.486;9.232;2023-08-30T03:43:06;14.83;;;5.63;;
3567;SDS011;1798;48.486;9.232;2023-08-30T03:45:35;9.40;;;5.80;;
3567;SDS011;1798;48.486;9.232;2023-08-30T03:48:02;15.60;;;6.53;;
3567;SDS011;1798;48.486;9.232;2023-08-30T03:50:29;11.63;;;5.53;;
3567;SDS011;1798;48.486;9.232;2023-08-30T03:52:56;8.67;;;5.50;;
3567;SDS011;1798;48.486;9.232;2023-08-30T03:55:23;12.53;;;6.00;;
3567;SDS011;1798;48.486;9.232;2023-08-30T03:57:49;9.40;;;5.50;;
3567;SDS011;1798;48.486;9.232;2023-08-30T04:00:16;18.87;;;6.00;;
3567;SDS011;1798;48.486;9.232;2023-08-30T04:02:44;10.50;;;5.53;;
3567;SDS011;1798;48.486;9.232;2023-08-30T04:05:11;8.90;;;5.33;;
3567;SDS011;1798;48.486;9.232;2023-08-30T04:07:38;7.97;;;5.20;;
3567;SDS011;1798;48.486;9.232;2023-08-30T04:10:05;11.23;;;5.30;;
3567;SDS011;1798;48.486;9.232;2023-08-30T04:12:32;15.00;;;5.90;;
3567;SDS011;1798;48.486;9.232;2023-08-30T04:14:59;11.47;;;5.97;;
3567;SDS011;1798;48.486;9.232;2023-08-30T04:17:26;11.30;;;5.23;;
3567;SDS011;1798;48.486;9.232;2023-08-30T04:19:54;7.97;;;5.33;;
3567;SDS011;1798;48.486;9.232;2023-08-30T04:22:21;10.33;;;5.33;;
3567;SDS011;1798;48.486;9.232;2023-08-30T04:24:48;49.50;;;5.77;;
3567;SDS011;1798;48.486;9.232;2023-08-30T04:27:15;9.90;;;5.60;;
3567;SDS011;1798;48.486;9.232;2023-08-30T04:29:41;9.67;;;5.50;;
3567;SDS011;1798;48.486;9.232;2023-08-30T04:32:10;12.57;;;5.63;;
3567;SDS011;1798;48.486;9.232;2023-08-30T04:34:37;21.90;;;5.87;;
3567;SDS011;1798;48.486;9.232;2023-08-30T04:37:05;9.80;;;5.20;;
3567;SDS011;1798;48.486;9.232;2023-08-30T04:39:32;10.53;;;5.70;;
3567;SDS011;1798;48.486;9.232;2023-08-30T04:41:58;9.13;;;4.90;;
3567;SDS011;1798;48.486;9.232;2023-08-30T04:44:25;16.67;;;5.97;;
3567;SDS011;1798;48.486;9.232;2023-08-30T04:46:53;8.17;;;4.60;;
3567;SDS011;1798;48.486;9.232;2023-08-30T04:49:20;7.50;;;5.03;;
3567;SDS011;1798;48.486;9.232;2023-08-30T04:51:47;9.83;;;5.03;;
3567;SDS011;1798;48.486;9.232;2023-08-30T04:54:15;26.23;;;5.90;;
3567;SDS011;1798;48.486;9.232;2023-08-30T04:56:42;7.80;;;5.00;;
3567;SDS011;1798;48.486;9.232;2023-08-30T04:59:08;9.77;;;5.27;;
3567;SDS011;1798;48.486;9.232;2023-08-30T05:01:35;7.87;;;4.87;;
3567;SDS011;1798;48.486;9.232;2023-08-30T05:04:03;10.23;;;4.67;;
3567;SDS011;1798;48.486;9.232;2023-08-30T05:06:30;8.83;;;5.07;;
3567;SDS011;1798;48.486;9.232;2023-08-30T05:08:57;12.47;;;5.40;;
3567;SDS011;1798;48.486;9.232;2023-08-30T05:11:25;14.03;;;6.83;;
3567;SDS011;1798;48.486;9.232;2023-08-30T05:13:52;7.60;;;4.97;;
3567;SDS011;1798;48.486;9.232;2023-08-30T05:16:19;14.23;;;5.40;;
3567;SDS011;1798;48.486;9.232;2023-08-30T05:18:45;12.73;;;6.40;;
3567;SDS011;1798;48.486;9.232;2023-08-30T05:21:13;7.10;;;4.87;;
3567;SDS011;1798;48.486;9.232;2023-08-30T05:23:39;8.90;;;5.50;;
3567;SDS011;1798;48.486;9.232;2023-08-30T05:26:07;15.33;;;5.00;;
3567;SDS011;1798;48.486;9.232;2023-08-30T05:28:35;8.93;;;5.03;;
3567;SDS011;1798;48.486;9.232;2023-08-30T05:31:02;8.73;;;5.83;;
3567;SDS011;1798;48.486;9.232;2023-08-30T05:33:28;11.50;;;6.40;;
3567;SDS011;1798;48.486;9.232;2023-08-30T05:35:55;10.70;;;6.30;;
3567;SDS011;1798;48.486;9.232;2023-08-30T05:38:22;13.50;;;7.30;;
3567;SDS011;1798;48.486;9.232;2023-08-30T05:40:48;11.77;;;6.30;;
3567;SDS011;1798;48.486;9.232;2023-08-30T05:43:15;14.53;;;6.23;;
3567;SDS011;1798;48.486;9.232;2023-08-30T05:45:44;14.07;;;6.83;;
3567;SDS011;1798;48.486;9.232;2023-08-30T05:48:11;8.27;;;5.83;;
3567;SDS011;1798;48.486;9.232;2023-08-30T05:50:37;10.50;;;6.27;;
3567;SDS011;1798;48.486;9.232;2023-08-30T05:53:05;10.70;;;6.43;;
3567;SDS011;1798;48.486;9.232;2023-08-30T05:55:32;10.40;;;5.87;;
3567;SDS011;1798;48.486;9.232;2023-08-30T05:57:59;9.83;;;6.33;;
3567;SDS011;1798;48.486;9.232;2023-08-30T06:00:25;10.03;;;6.30;;
3567;SDS011;1798;48.486;9.232;2023-08-30T06:02:53;14.43;;;6.70;;
3567;SDS011;1798;48.486;9.232;2023-08-30T06:05:20;11.53;;;5.97;;
3567;SDS011;1798;48.486;9.232;2023-08-30T06:07:47;19.43;;;6.83;;
3567;SDS011;1798;48.486;9.232;2023-08-30T06:10:13;11.87;;;7.20;;
3567;SDS011;1798;48.486;9.232;2023-08-30T06:12:40;12.90;;;6.27;;
3567;SDS011;1798;48.486;9.232;2023-08-30T06:15:07;10.73;;;6.70;;
3567;SDS011;1798;48.486;9.232;2023-08-30T06:17:34;9.50;;;5.57;;
3567;SDS011;1798;48.486;9.232;2023-08-30T06:20:02;11.60;;;6.83;;
3567;SDS011;1798;48.486;9.232;2023-08-30T06:22:29;21.10;;;9.17;;
3567;SDS011;1798;48.486;9.232;2023-08-30T06:24:56;18.37;;;6.93;;
3567;SDS011;1798;48.486;9.232;2023-08-30T06:27:23;20.13;;;7.03;;
3567;SDS011;1798;48.486;9.232;2023-08-30T06:29:50;24.50;;;7.07;;
3567;SDS011;1798;48.486;9.232;2023-08-30T06:32:17;14.43;;;6.27;;
3567;SDS011;1798;48.486;9.232;2023-08-30T06:34:43;10.23;;;6.67;;
3567;SDS011;1798;48.486;9.232;2023-08-30T06:37:11;22.23;;;6.73;;
3567;SDS011;1798;48.486;9.232;2023-08-30T06:39:38;9.00;;;6.00;;
3567;SDS011;1798;48.486;9.232;2023-08-30T06:42:04;9.73;;;6.70;;
3567;SDS011;1798;48.486;9.232;2023-08-30T06:44:32;8.20;;;4.37;;
3567;SDS011;1798;48.486;9.232;2023-08-30T06:46:59;10.03;;;4.00;;
3567;SDS011;1798;48.486;9.232;2023-08-30T06:49:25;14.57;;;5.37;;
3567;SDS011;1798;48.486;9.232;2023-08-30T06:51:52;9.53;;;5.60;;
3567;SDS011;1798;48.486;9.232;2023-08-30T06:54:20;12.23;;;6.80;;
3567;SDS011;1798;48.486;9.232;2023-08-30T06:56:56;58.70;;;7.50;;
3567;SDS011;1798;48.486;9.232;2023-08-30T06:59:24;10.10;;;6.90;;
3567;SDS011;1798;48.486;9.232;2023-08-30T07:01:50;14.40;;;7.00;;
3567;SDS011;1798;48.486;9.232;2023-08-30T07:04:17;6.30;;;3.57;;
3567;SDS011;1798;48.486;9.232;2023-08-30T07:06:44;11.30;;;6.73;;
3567;SDS011;1798;48.486;9.232;2023-08-30T07:09:10;20.90;;;6.10;;
3567;SDS011;1798;48.486;9.232;2023-08-30T07:11:39;27.23;;;6.43;;
3567;SDS011;1798;48.486;9.232;2023-08-30T07:14:05;10.47;;;7.27;;
3567;SDS011;1798;48.486;9.232;2023-08-30T07:16:32;9.07;;;6.93;;
3567;SDS011;1798;48.486;9.232;2023-08-30T07:18:59;15.83;;;6.50;;
3567;SDS011;1798;48.486;9.232;2023-08-30T07:21:27;21.53;;;6.17;;
3567;SDS011;1798;48.486;9.232;2023-08-30T07:23:53;17.07;;;6.70;;
3567;SDS011;1798;48.486;9.232;2023-08-30T07:26:20;9.27;;;4.90;;
3567;SDS011;1798;48.486;9.232;2023-08-30T07:28:48;7.40;;;4.67;;
3567;SDS011;1798;48.486;9.232;2023-08-30T07:31:15;13.83;;;6.70;;
3567;SDS011;1798;48.486;9.232;2023-08-30T07:33:43;13.10;;;6.07;;
3567;SDS011;1798;48.486;9.232;2023-08-30T07:36:10;16.53;;;5.33;;
3567;SDS011;1798;48.486;9.232;2023-08-30T07:38:37;17.20;;;5.70;;
3567;SDS011;1798;48.486;9.232;2023-08-30T07:41:04;8.87;;;5.13;;
3567;SDS011;1798;48.486;9.232;2023-08-30T07:43:30;10.77;;;5.70;;
3567;SDS011;1798;48.486;9.232;2023-08-30T07:45:59;8.40;;;5.33;;
3567;SDS011;1798;48.486;9.232;2023-08-30T07:48:25;20.83;;;4.23;;
3567;SDS011;1798;48.486;9.232;2023-08-30T07:50:52;9.90;;;5.27;;
3567;SDS011;1798;48.486;9.232;2023-08-30T07:53:18;11.03;;;5.33;;
3567;SDS011;1798;48.486;9.232;2023-08-30T07:55:47;7.50;;;4.97;;
3567;SDS011;1798;48.486;9.232;2023-08-30T07:58:15;6.30;;;3.77;;
3567;SDS011;1798;48.486;9.232;2023-08-30T08:00:41;12.73;;;4.77;;
3567;SDS011;1798;48.486;9.232;2023-08-30T08:03:10;9.17;;;5.00;;
3567;SDS011;1798;48.486;9.232;2023-08-30T08:05:36;11.97;;;4.77;;
3567;SDS011;1798;48.486;9.232;2023-08-30T08:08:03;6.23;;;3.70;;
3567;SDS011;1798;48.486;9.232;2023-08-30T08:10:31;12.13;;;5.40;;
3567;SDS011;1798;48.486;9.232;2023-08-30T08:12:58;7.17;;;4.40;;
3567;SDS011;1798;48.486;9.232;2023-08-30T08:15:24;12.20;;;3.30;;
3567;SDS011;1798;48.486;9.232;2023-08-30T08:17:51;8.93;;;3.50;;
3567;SDS011;1798;48.486;9.232;2023-08-30T08:20:19;15.00;;;4.73;;
3567;SDS011;1798;48.486;9.232;2023-08-30T08:22:46;7.57;;;4.17;;
3567;SDS011;1798;48.486;9.232;2023-08-30T08:25:13;9.93;;;5.47;;
3567;SDS011;1798;48.486;9.232;2023-08-30T08:27:40;5.73;;;3.27;;
3567;SDS011;1798;48.486;9.232;2023-08-30T08:30:07;5.40;;;3.20;;
3567;SDS011;1798;48.486;9.232;2023-08-30T08:32:34;5.97;;;3.60;;
3567;SDS011;1798;48.486;9.232;2023-08-30T08:35:01;18.93;;;5.63;;
3567;SDS011;1798;48.486;9.232;2023-08-30T08:37:29;11.67;;;4.80;;
3567;SDS011;1798;48.486;9.232;2023-08-30T08:39:57;25.60;;;5.60;;
3567;SDS011;1798;48.486;9.232;2023-08-30T08:42:23;5.60;;;3.33;;
3567;SDS011;1798;48.486;9.232;2023-08-30T08:44:50;10.03;;;3.70;;
3567;SDS011;1798;48.486;9.232;2023-08-30T08:47:18;11.63;;;5.10;;
3567;SDS011;1798;48.486;9.232;2023-08-30T08:49:45;7.60;;;5.00;;
3567;SDS011;1798;48.486;9.232;2023-08-30T08:52:13;8.70;;;5.10;;
3567;SDS011;1798;48.486;9.232;2023-08-30T08:54:41;5.90;;;3.40;;
3567;SDS011;1798;48.486;9.232;2023-08-30T08:57:09;9.77;;;4.37;;
3567;SDS011;1798;48.486;9.232;2023-08-30T08:59:35;6.47;;;3.90;;
3567;SDS011;1798;48.486;9.232;2023-08-30T09:02:03;7.00;;;4.17;;
3567;SDS011;1798;48.486;9.232;2023-08-30T09:04:30;6.50;;;4.00;;
3567;SDS011;1798;48.486;9.232;2023-08-30T09:06:58;4.93;;;3.03;;
3567;SDS011;1798;48.486;9.232;2023-08-30T09:09:25;7.97;;;4.43;;
3567;SDS011;1798;48.486;9.232;2023-08-30T09:11:53;6.80;;;3.80;;
3567;SDS011;1798;48.486;9.232;2023-08-30T09:14:20;5.07;;;3.00;;
3567;SDS011;1798;48.486;9.232;2023-08-30T09:16:53;6.63;;;4.43;;
3567;SDS011;1798;48.486;9.232;2023-08-30T09:19:20;17.53;;;5.03;;
3567;SDS011;1798;48.486;9.232;2023-08-30T09:21:50;10.50;;;5.33;;
3567;SDS011;1798;48.486;9.232;2023-08-30T09:24:18;12.33;;;3.83;;
3567;SDS011;1798;48.486;9.232;2023-08-30T09:26:47;6.50;;;3.90;;
3567;SDS011;1798;48.486;9.232;2023-08-30T09:29:16;11.77;;;4.60;;
3567;SDS011;1798;48.486;9.232;2023-08-30T09:31:44;8.13;;;4.77;;
3567;SDS011;1798;48.486;9.232;2023-08-30T09:34:11;12.03;;;4.10;;
3567;SDS011;1798;48.486;9.232;2023-08-30T09:36:38;6.70;;;3.57;;
3567;SDS011;1798;48.486;9.232;2023-08-30T09:39:05;12.30;;;3.93;;
3567;SDS011;1798;48.486;9.232;2023-08-30T09:41:34;6.70;;;3.67;;
3567;SDS011;1798;48.486;9.232;2023-08-30T09:44:05;7.57;;;3.17;;
3567;SDS011;1798;48.486;9.232;2023-08-30T09:46:41;8.67;;;4.20;;
3567;SDS011;1798;48.486;9.232;2023-08-30T09:49:08;6.90;;;3.90;;
3567;SDS011;1798;48.486;9.232;2023-08-30T09:51:35;6.93;;;3.50;;
3567;SDS011;1798;48.486;9.232;2023-08-30T09:54:06;8.30;;;4.07;;
3567;SDS011;1798;48.486;9.232;2023-08-30T09:56:41;6.70;;;3.87;;
3567;SDS011;1798;48.486;9.232;2023-08-30T09:59:08;5.77;;;3.30;;
3567;SDS011;1798;48.486;9.232;2023-08-30T10:01:36;6.00;;;3.60;;
3567;SDS011;1798;48.486;9.232;2023-08-30T10:04:04;9.07;;;3.60;;
3567;SDS011;1798;48.486;9.232;2023-08-30T10:06:33;7.03;;;4.20;;
3567;SDS011;1798;48.486;9.232;2023-08-30T10:09:00;7.30;;;3.87;;
3567;SDS011;1798;48.486;9.232;2023-08-30T10:11:29;15.70;;;3.60;;
3567;SDS011;1798;48.486;9.232;2023-08-30T10:13:56;14.53;;;4.30;;
3567;SDS011;1798;48.486;9.232;2023-08-30T10:16:24;5.60;;;3.30;;
3567;SDS011;1798;48.486;9.232;2023-08-30T10:18:54;7.37;;;4.10;;
3567;SDS011;1798;48.486;9.232;2023-08-30T10:21:22;6.50;;;3.07;;
3567;SDS011;1798;48.486;9.232;2023-08-30T10:23:49;6.50;;;3.73;;
3567;SDS011;1798;48.486;9.232;2023-08-30T10:26:20;5.90;;;3.17;;
3567;SDS011;1798;48.486;9.232;2023-08-30T10:28:50;5.13;;;3.00;;
3567;SDS011;1798;48.486;9.232;2023-08-30T10:31:18;6.33;;;3.93;;
3567;SDS011;1798;48.486;9.232;2023-08-30T10:33:48;5.73;;;3.47;;
3567;SDS011;1798;48.486;9.232;2023-08-30T10:36:20;7.10;;;4.00;;
3567;SDS011;1798;48.486;9.232;2023-08-30T10:38:50;9.70;;;3.40;;
3567;SDS011;1798;48.486;9.232;2023-08-30T10:41:20;5.97;;;3.27;;
3567;SDS011;1798;48.486;9.232;2023-08-30T10:43:49;8.73;;;4.30;;
3567;SDS011;1798;48.486;9.232;2023-08-30T10:46:17;7.10;;;3.73;;
3567;SDS011;1798;48.486;9.232;2023-08-30T10:48:54;6.33;;;3.40;;
3567;SDS011;1798;48.486;9.232;2023-08-30T10:51:35;8.30;;;4.40;;
3567;SDS011;1798;48.486;9.232;2023-08-30T10:54:11;5.90;;;3.50;;
3567;SDS011;1798;48.486;9.232;2023-08-30T10:56:47;8.93;;;3.90;;
3567;SDS011;1798;48.486;9.232;2023-08-30T10:59:18;6.20;;;3.60;;
3567;SDS011;1798;48.486;9.232;2023-08-30T11:01:45;7.93;;;4.27;;
3567;SDS011;1798;48.486;9.232;2023-08-30T11:04:12;9.50;;;4.10;;
3567;SDS011;1798;48.486;9.232;2023-08-30T11:06:41;15.40;;;3.67;;
3567;SDS011;1798;48.486;9.232;2023-08-30T11:09:10;8.70;;;3.47;;
3567;SDS011;1798;48.486;9.232;2023-08-30T11:11:39;7.17;;;3.83;;
3567;SDS011;1798;48.486;9.232;2023-08-30T11:14:06;6.87;;;3.63;;
3567;SDS011;1798;48.486;9.232;2023-08-30T11:16:33;6.17;;;3.63;;
3567;SDS011;1798;48.486;9.232;2023-08-30T11:19:00;8.63;;;3.90;;
3567;SDS011;1798;48.486;9.232;2023-08-30T11:21:26;11.40;;;3.90;;
3567;SDS011;1798;48.486;9.232;2023-08-30T11:23:53;5.70;;;3.53;;
3567;SDS011;1798;48.486;9.232;2023-08-30T11:26:21;6.70;;;3.20;;
3567;SDS011;1798;48.486;9.232;2023-08-30T11:28:48;5.47;;;3.53;;
3567;SDS011;1798;48.486;9.232;2023-08-30T11:31:17;6.90;;;3.90;;
3567;SDS011;1798;48.486;9.232;2023-08-30T11:33:50;6.70;;;3.57;;
3567;SDS011;1798;48.486;9.232;2023-08-30T11:36:17;6.87;;;3.57;;
3567;SDS011;1798;48.486;9.232;2023-08-30T11:38:45;6.67;;;3.97;;
3567;SDS011;1798;48.486;9.232;2023-08-30T11:41:12;5.93;;;3.73;;
3567;SDS011;1798;48.486;9.232;2023-08-30T11:43:40;5.50;;;3.37;;
3567;SDS011;1798;48.486;9.232;2023-08-30T11:46:07;7.20;;;4.07;;
3567;SDS011;1798;48.486;9.232;2023-08-30T11:48:34;8.03;;;4.20;;
3567;SDS011;1798;48.486;9.232;2023-08-30T11:51:01;16.50;;;3.23;;
3567;SDS011;1798;48.486;9.232;2023-08-30T11:53:27;7.07;;;3.40;;
3567;SDS011;1798;48.486;9.232;2023-08-30T11:55:55;9.47;;;4.30;;
3567;SDS011;1798;48.486;9.232;2023-08-30T11:58:21;5.70;;;3.43;;
3567;SDS011;1798;48.486;9.232;2023-08-30T12:00:50;7.17;;;4.33;;
3567;SDS011;1798;48.486;9.232;2023-08-30T12:03:18;10.07;;;3.70;;
3567;SDS011;1798;48.486;9.232;2023-08-30T12:05:45;5.70;;;3.40;;
3567;SDS011;1798;48.486;9.232;2023-08-30T12:08:17;7.30;;;4.30;;
3567;SDS011;1798;48.486;9.232;2023-08-30T12:10:44;6.17;;;3.60;;
3567;SDS011;1798;48.486;9.232;2023-08-30T12:13:19;29.53;;;3.80;;
3567;SDS011;1798;48.486;9.232;2023-08-30T12:15:46;5.37;;;3.13;;
3567;SDS011;1798;48.486;9.232;2023-08-30T12:18:15;6.00;;;3.73;;
3567;SDS011;1798;48.486;9.232;2023-08-30T12:20:50;7.43;;;3.43;;
3567;SDS011;1798;48.486;9.232;2023-08-30T12:23:21;6.63;;;3.60;;
3567;SDS011;1798;48.486;9.232;2023-08-30T12:26:01;6.03;;;3.23;;
3567;SDS011;1798;48.486;9.232;2023-08-30T12:28:29;6.00;;;3.60;;
3567;SDS011;1798;48.486;9.232;2023-08-30T12:30:56;6.60;;;3.60;;
3567;SDS011;1798;48.486;9.232;2023-08-30T12:33:25;7.60;;;3.43;;
3567;SDS011;1798;48.486;9.232;2023-08-30T12:35:53;6.10;;;3.70;;
3567;SDS011;1798;48.486;9.232;2023-08-30T12:38:20;6.30;;;4.00;;
3567;SDS011;1798;48.486;9.232;2023-08-30T12:40:47;8.23;;;3.67;;
3567;SDS011;1798;48.486;9.232;2023-08-30T12:43:14;5.40;;;3.27;;
3567;SDS011;1798;48.486;9.232;2023-08-30T12:45:41;6.43;;;3.97;;
3567;SDS011;1798;48.486;9.232;2023-08-30T12:48:08;10.53;;;4.17;;
3567;SDS011;1798;48.486;9.232;2023-08-30T12:50:37;6.73;;;4.67;;
3567;SDS011;1798;48.486;9.232;2023-08-30T12:53:04;10.20;;;5.50;;
3567;SDS011;1798;48.486;9.232;2023-08-30T12:55:32;7.43;;;4.47;;
3567;SDS011;1798;48.486;9.232;2023-08-30T12:57:59;8.70;;;3.87;;
3567;SDS011;1798;48.486;9.232;2023-08-30T13:00:26;14.93;;;4.80;;
3567;SDS011;1798;48.486;9.232;2023-08-30T13:02:52;10.00;;;5.10;;
3567;SDS011;1798;48.486;9.232;2023-08-30T13:05:19;10.57;;;4.60;;
3567;SDS011;1798;48.486;9.232;2023-08-30T13:07:48;8.93;;;5.47;;
3567;SDS011;1798;48.486;9.232;2023-08-30T13:10:14;8.37;;;5.50;;
3567;SDS011;1798;48.486;9.232;2023-08-30T13:12:41;7.20;;;4.17;;
3567;SDS011;1798;48.486;9.232;2023-08-30T13:15:09;8.00;;;5.00;;
3567;SDS011;1798;48.486;9.232;2023-08-30T13:17:36;11.00;;;5.50;;
3567;SDS011;1798;48.486;9.232;2023-08-30T13:20:03;8.50;;;4.57;;
3567;SDS011;1798;48.486;9.232;2023-08-30T13:22:30;14.93;;;4.83;;
3567;SDS011;1798;48.486;9.232;2023-08-30T13:24:58;14.63;;;5.40;;
3567;SDS011;1798;48.486;9.232;2023-08-30T13:27:25;9.67;;;4.67;;
3567;SDS011;1798;48.486;9.232;2023-08-30T13:29:52;15.80;;;5.87;;
3567;SDS011;1798;48.486;9.232;2023-08-30T13:32:18;12.40;;;5.33;;
3567;SDS011;1798;48.486;9.232;2023-08-30T13:34:45;7.10;;;4.33;;
3567;SDS011;1798;48.486;9.232;2023-08-30T13:37:12;17.23;;;4.57;;
3567;SDS011;1798;48.486;9.232;2023-08-30T13:39:39;8.83;;;4.70;;
3567;SDS011;1798;48.486;9.232;2023-08-30T13:42:07;10.73;;;4.70;;
3567;SDS011;1798;48.486;9.232;2023-08-30T13:44:35;8.70;;;3.67;;
3567;SDS011;1798;48.486;9.232;2023-08-30T13:47:02;8.63;;;3.63;;
3567;SDS011;1798;48.486;9.232;2023-08-30T13:49:32;9.47;;;4.37;;
3567;SDS011;1798;48.486;9.232;2023-08-30T13:51:58;6.80;;;4.20;;
3567;SDS011;1798;48.486;9.232;2023-08-30T13:54:25;8.23;;;4.07;;
3567;SDS011;1798;48.486;9.232;2023-08-30T13:56:54;8.23;;;3.90;;
3567;SDS011;1798;48.486;9.232;2023-08-30T13:59:23;8.93;;;4.17;;
3567;SDS011;1798;48.486;9.232;2023-08-30T14:01:50;7.53;;;4.13;;
3567;SDS011;1798;48.486;9.232;2023-08-30T14:04:17;9.73;;;4.27;;
3567;SDS011;1798;48.486;9.232;2023-08-30T14:06:43;7.80;;;3.40;;
3567;SDS011;1798;48.486;9.232;2023-08-30T14:09:10;6.20;;;3.27;;
3567;SDS011;1798;48.486;9.232;2023-08-30T14:11:36;6.23;;;3.33;;
3567;SDS011;1798;48.486;9.232;2023-08-30T14:14:04;8.13;;;4.20;;
3567;SDS011;1798;48.486;9.232;2023-08-30T14:16:32;9.03;;;3.70;;
3567;SDS011;1798;48.486;9.232;2023-08-30T14:18:59;7.83;;;3.60;;
3567;SDS011;1798;48.486;9.232;2023-08-30T14:21:30;8.60;;;4.50;;
3567;SDS011;1798;48.486;9.232;2023-08-30T14:23:56;14.30;;;4.40;;
3567;SDS011;1798;48.486;9.232;2023-08-30T14:26:23;9.13;;;4.13;;
3567;SDS011;1798;48.486;9.232;2023-08-30T14:28:50;9.20;;;3.47;;
3567;SDS011;1798;48.486;9.232;2023-08-30T14:31:16;7.83;;;4.30;;
3567;SDS011;1798;48.486;9.232;2023-08-30T14:33:45;6.30;;;2.97;;
3567;SDS011;1798;48.486;9.232;2023-08-30T14:36:12;13.00;;;3.73;;
3567;SDS011;1798;48.486;9.232;2023-08-30T14:38:39;7.73;;;4.10;;
3567;SDS011;1798;48.486;9.232;2023-08-30T14:41:06;11.30;;;4.40;;
3567;SDS011;1798;48.486;9.232;2023-08-30T14:43:33;9.80;;;5.30;;
3567;SDS011;1798;48.486;9.232;2023-08-30T14:46:00;8.20;;;4.83;;
3567;SDS011;1798;48.486;9.232;2023-08-30T14:48:27;12.50;;;5.03;;
3567;SDS011;1798;48.486;9.232;2023-08-30T14:50:55;9.57;;;4.73;;
3567;SDS011;1798;48.486;9.232;2023-08-30T14:53:21;7.47;;;4.83;;
3567;SDS011;1798;48.486;9.232;2023-08-30T14:55:48;6.17;;;3.70;;
3567;SDS011;1798;48.486;9.232;2023-08-30T14:58:15;8.80;;;3.93;;
3567;SDS011;1798;48.486;9.232;2023-08-30T15:00:41;9.23;;;3.60;;
3567;SDS011;1798;48.486;9.232;2023-08-30T15:03:08;9.77;;;5.33;;
3567;SDS011;1798;48.486;9.232;2023-08-30T15:05:35;8.20;;;4.10;;
3567;SDS011;1798;48.486;9.232;2023-08-30T15:08:04;10.87;;;5.20;;
3567;SDS011;1798;48.486;9.232;2023-08-30T15:10:31;6.83;;;3.80;;
3567;SDS011;1798;48.486;9.232;2023-08-30T15:12:58;8.77;;;4.10;;